sensor_id;sensor_type;location;lat;lon;timestamp;P1;durP1;ratioP1;P2;durP2;ratioP2
39524;SDS011;25203;50.754;6.978;2024-03-08T00:00:49;26.83;;;18.38;;
39524;SDS011;25203;50.754;6.978;2024-03-08T00:02:51;29.10;;;19.20;;
39524;SDS011;25203;50.754;6.978;2024-03-08T00:04:51;25.45;;;18.85;;
39524;SDS011;25203;50.754;6.978;2024-03-08T00:06:52;29.85;;;19.63;;
39524;SDS011;25203;50.754;6.978;2024-03-08T00:08:52;27.10;;;18.75;;
39524;SDS011;25203;50.754;6.978;2024-03-08T00:10:53;25.23;;;18.95;;
39524;SDS011;25203;50.754;6.978;2024-03-08T00:12:54;27.25;;;17.52;;
39524;SDS011;25203;50.754;6.978;2024-03-08T00:14:54;27.73;;;18.45;;
39524;SDS011;25203;50.754;6.978;2024-03-08T00:16:55;26.45;;;18.33;;
39524;SDS011;25203;50.754;6.978;2024-03-08T00:18:56;28.00;;;18.75;;
39524;SDS011;25203;50.754;6.978;2024-03-08T00:20:56;29.30;;;20.40;;
39524;SDS011;25203;50.754;6.978;2024-03-08T00:22:57;26.83;;;18.52;;
39524;SDS011;25203;50.754;6.978;2024-03-08T00:24:57;30.40;;;20.17;;
39524;SDS011;25203;50.754;6.978;2024-03-08T00:26:58;29.15;;;18.65;;
39524;SDS011;25203;50.754;6.978;2024-03-08T00:28:59;27.80;;;19.10;;
39524;SDS011;25203;50.754;6.978;2024-03-08T00:30:59;28.02;;;18.98;;
39524;SDS011;25203;50.754;6.978;2024-03-08T00:33:00;27.75;;;18.85;;
39524;SDS011;25203;50.754;6.978;2024-03-08T00:35:01;26.92;;;18.40;;
39524;SDS011;25203;50.754;6.978;2024-03-08T00:37:02;25.85;;;18.42;;
39524;SDS011;25203;50.754;6.978;2024-03-08T00:39:04;29.55;;;19.13;;
39524;SDS011;25203;50.754;6.978;2024-03-08T00:41:06;26.92;;;19.20;;
39524;SDS011;25203;50.754;6.978;2024-03-08T00:43:07;26.50;;;18.50;;
39524;SDS011;25203;50.754;6.978;2024-03-08T00:45:08;29.33;;;20.38;;
39524;SDS011;25203;50.754;6.978;2024-03-08T00:47:10;26.10;;;18.25;;
39524;SDS011;25203;50.754;6.978;2024-03-08T00:49:11;24.38;;;17.90;;
39524;SDS011;25203;50.754;6.978;2024-03-08T00:51:12;29.15;;;19.75;;
39524;SDS011;25203;50.754;6.978;2024-03-08T00:53:15;27.83;;;19.17;;
39524;SDS011;25203;50.754;6.978;2024-03-08T00:55:16;32.03;;;19.90;;
39524;SDS011;25203;50.754;6.978;2024-03-08T00:57:17;28.35;;;19.77;;
39524;SDS011;25203;50.754;6.978;2024-03-08T00:59:18;27.55;;;18.23;;
39524;SDS011;25203;50.754;6.978;2024-03-08T01:01:18;26.70;;;18.77;;
39524;SDS011;25203;50.754;6.978;2024-03-08T01:03:19;28.55;;;19.95;;
39524;SDS011;25203;50.754;6.978;2024-03-08T01:05:20;27.98;;;18.88;;
39524;SDS011;25203;50.754;6.978;2024-03-08T01:07:20;29.67;;;20.60;;
39524;SDS011;25203;50.754;6.978;2024-03-08T01:09:24;30.90;;;19.90;;
39524;SDS011;25203;50.754;6.978;2024-03-08T01:11:26;29.48;;;19.88;;
39524;SDS011;25203;50.754;6.978;2024-03-08T01:13:28;27.02;;;19.35;;
39524;SDS011;25203;50.754;6.978;2024-03-08T01:15:28;27.40;;;19.60;;
39524;SDS011;25203;50.754;6.978;2024-03-08T01:17:30;31.23;;;20.42;;
39524;SDS011;25203;50.754;6.978;2024-03-08T01:19:31;30.83;;;19.92;;
39524;SDS011;25203;50.754;6.978;2024-03-08T01:21:33;30.63;;;20.20;;
39524;SDS011;25203;50.754;6.978;2024-03-08T01:23:34;32.55;;;20.75;;
39524;SDS011;25203;50.754;6.978;2024-03-08T01:25:34;27.30;;;18.33;;
39524;SDS011;25203;50.754;6.978;2024-03-08T01:27:35;26.35;;;19.25;;
39524;SDS011;25203;50.754;6.978;2024-03-08T01:29:36;30.13;;;20.58;;
39524;SDS011;25203;50.754;6.978;2024-03-08T01:31:37;31.45;;;20.25;;
39524;SDS011;25203;50.754;6.978;2024-03-08T01:33:38;29.55;;;20.05;;
39524;SDS011;25203;50.754;6.978;2024-03-08T01:35:38;32.97;;;20.55;;
39524;SDS011;25203;50.754;6.978;2024-03-08T01:37:41;28.77;;;19.38;;
39524;SDS011;25203;50.754;6.978;2024-03-08T01:39:42;28.30;;;19.90;;
39524;SDS011;25203;50.754;6.978;2024-03-08T01:41:42;27.75;;;20.50;;
39524;SDS011;25203;50.754;6.978;2024-03-08T01:43:43;26.13;;;19.02;;
39524;SDS011;25203;50.754;6.978;2024-03-08T01:45:45;29.10;;;19.65;;
39524;SDS011;25203;50.754;6.978;2024-03-08T01:47:45;29.58;;;20.20;;
39524;SDS011;25203;50.754;6.978;2024-03-08T01:49:49;30.83;;;19.55;;
39524;SDS011;25203;50.754;6.978;2024-03-08T01:51:50;31.08;;;20.42;;
39524;SDS011;25203;50.754;6.978;2024-03-08T01:53:51;36.53;;;21.55;;
39524;SDS011;25203;50.754;6.978;2024-03-08T01:55:54;29.15;;;20.10;;
39524;SDS011;25203;50.754;6.978;2024-03-08T01:57:58;31.90;;;19.25;;
39524;SDS011;25203;50.754;6.978;2024-03-08T02:00:00;29.73;;;20.23;;
39524;SDS011;25203;50.754;6.978;2024-03-08T02:02:03;29.33;;;20.48;;
39524;SDS011;25203;50.754;6.978;2024-03-08T02:04:06;30.38;;;20.00;;
39524;SDS011;25203;50.754;6.978;2024-03-08T02:06:07;31.40;;;19.58;;
39524;SDS011;25203;50.754;6.978;2024-03-08T02:08:10;29.45;;;19.35;;
39524;SDS011;25203;50.754;6.978;2024-03-08T02:10:14;29.50;;;19.10;;
39524;SDS011;25203;50.754;6.978;2024-03-08T02:12:15;31.83;;;20.08;;
39524;SDS011;25203;50.754;6.978;2024-03-08T02:14:16;27.08;;;18.70;;
39524;SDS011;25203;50.754;6.978;2024-03-08T02:16:22;31.63;;;21.13;;
39524;SDS011;25203;50.754;6.978;2024-03-08T02:18:23;31.80;;;19.50;;
39524;SDS011;25203;50.754;6.978;2024-03-08T02:20:23;32.55;;;20.92;;
39524;SDS011;25203;50.754;6.978;2024-03-08T02:22:24;31.27;;;21.42;;
39524;SDS011;25203;50.754;6.978;2024-03-08T02:24:25;30.60;;;21.33;;
39524;SDS011;25203;50.754;6.978;2024-03-08T02:26:26;35.40;;;20.63;;
39524;SDS011;25203;50.754;6.978;2024-03-08T02:28:27;34.15;;;21.90;;
39524;SDS011;25203;50.754;6.978;2024-03-08T02:30:29;32.10;;;22.00;;
39524;SDS011;25203;50.754;6.978;2024-03-08T02:32:29;34.70;;;21.98;;
39524;SDS011;25203;50.754;6.978;2024-03-08T02:34:32;34.22;;;20.67;;
39524;SDS011;25203;50.754;6.978;2024-03-08T02:36:33;32.35;;;20.95;;
39524;SDS011;25203;50.754;6.978;2024-03-08T02:38:35;36.83;;;22.13;;
39524;SDS011;25203;50.754;6.978;2024-03-08T02:40:35;34.85;;;22.98;;
39524;SDS011;25203;50.754;6.978;2024-03-08T02:42:36;33.05;;;21.80;;
39524;SDS011;25203;50.754;6.978;2024-03-08T02:44:36;33.13;;;21.88;;
39524;SDS011;25203;50.754;6.978;2024-03-08T02:46:37;32.53;;;20.77;;
39524;SDS011;25203;50.754;6.978;2024-03-08T02:48:37;32.72;;;22.15;;
39524;SDS011;25203;50.754;6.978;2024-03-08T02:50:39;34.45;;;21.95;;
39524;SDS011;25203;50.754;6.978;2024-03-08T02:52:42;32.70;;;21.25;;
39524;SDS011;25203;50.754;6.978;2024-03-08T02:54:43;33.25;;;21.77;;
39524;SDS011;25203;50.754;6.978;2024-03-08T02:56:46;37.70;;;22.70;;
39524;SDS011;25203;50.754;6.978;2024-03-08T02:58:47;36.90;;;23.23;;
39524;SDS011;25203;50.754;6.978;2024-03-08T03:00:48;33.60;;;22.23;;
39524;SDS011;25203;50.754;6.978;2024-03-08T03:02:50;33.50;;;20.38;;
39524;SDS011;25203;50.754;6.978;2024-03-08T03:04:53;32.70;;;21.75;;
39524;SDS011;25203;50.754;6.978;2024-03-08T03:06:55;34.90;;;20.83;;
39524;SDS011;25203;50.754;6.978;2024-03-08T03:08:56;30.00;;;20.55;;
39524;SDS011;25203;50.754;6.978;2024-03-08T03:10:57;33.40;;;20.67;;
39524;SDS011;25203;50.754;6.978;2024-03-08T03:12:58;28.15;;;19.67;;
39524;SDS011;25203;50.754;6.978;2024-03-08T03:14:58;34.78;;;20.35;;
39524;SDS011;25203;50.754;6.978;2024-03-08T03:16:59;35.53;;;21.63;;
39524;SDS011;25203;50.754;6.978;2024-03-08T03:18:59;38.78;;;22.40;;
39524;SDS011;25203;50.754;6.978;2024-03-08T03:21:01;37.75;;;22.58;;
39524;SDS011;25203;50.754;6.978;2024-03-08T03:23:07;36.90;;;22.45;;
39524;SDS011;25203;50.754;6.978;2024-03-08T03:25:08;35.38;;;22.45;;
39524;SDS011;25203;50.754;6.978;2024-03-08T03:27:09;34.10;;;21.67;;
39524;SDS011;25203;50.754;6.978;2024-03-08T03:29:13;32.13;;;20.55;;
39524;SDS011;25203;50.754;6.978;2024-03-08T03:31:13;33.83;;;21.17;;
39524;SDS011;25203;50.754;6.978;2024-03-08T03:33:14;32.33;;;20.08;;
39524;SDS011;25203;50.754;6.978;2024-03-08T03:35:17;30.00;;;20.08;;
39524;SDS011;25203;50.754;6.978;2024-03-08T03:37:19;35.13;;;20.90;;
39524;SDS011;25203;50.754;6.978;2024-03-08T03:39:19;35.30;;;22.23;;
39524;SDS011;25203;50.754;6.978;2024-03-08T03:41:22;35.72;;;22.98;;
39524;SDS011;25203;50.754;6.978;2024-03-08T03:43:23;38.95;;;23.65;;
39524;SDS011;25203;50.754;6.978;2024-03-08T03:45:24;36.28;;;21.77;;
39524;SDS011;25203;50.754;6.978;2024-03-08T03:47:25;36.40;;;22.83;;
39524;SDS011;25203;50.754;6.978;2024-03-08T03:49:27;38.25;;;23.23;;
39524;SDS011;25203;50.754;6.978;2024-03-08T03:51:29;37.35;;;23.33;;
39524;SDS011;25203;50.754;6.978;2024-03-08T03:53:30;35.55;;;22.40;;
39524;SDS011;25203;50.754;6.978;2024-03-08T03:55:30;38.28;;;22.90;;
39524;SDS011;25203;50.754;6.978;2024-03-08T03:57:31;40.58;;;23.45;;
39524;SDS011;25203;50.754;6.978;2024-03-08T03:59:32;39.67;;;24.70;;
39524;SDS011;25203;50.754;6.978;2024-03-08T04:01:33;39.53;;;24.42;;
39524;SDS011;25203;50.754;6.978;2024-03-08T04:03:34;38.38;;;24.38;;
39524;SDS011;25203;50.754;6.978;2024-03-08T04:05:34;39.78;;;25.80;;
39524;SDS011;25203;50.754;6.978;2024-03-08T04:07:35;40.63;;;24.90;;
39524;SDS011;25203;50.754;6.978;2024-03-08T04:09:36;36.65;;;22.85;;
39524;SDS011;25203;50.754;6.978;2024-03-08T04:11:37;37.88;;;23.27;;
39524;SDS011;25203;50.754;6.978;2024-03-08T04:13:38;37.92;;;22.70;;
39524;SDS011;25203;50.754;6.978;2024-03-08T04:15:38;35.25;;;23.00;;
39524;SDS011;25203;50.754;6.978;2024-03-08T04:17:39;39.05;;;22.90;;
39524;SDS011;25203;50.754;6.978;2024-03-08T04:19:39;37.97;;;24.23;;
39524;SDS011;25203;50.754;6.978;2024-03-08T04:21:40;40.88;;;24.88;;
39524;SDS011;25203;50.754;6.978;2024-03-08T04:23:42;35.30;;;21.85;;
39524;SDS011;25203;50.754;6.978;2024-03-08T04:25:45;38.50;;;23.42;;
39524;SDS011;25203;50.754;6.978;2024-03-08T04:27:46;39.70;;;23.85;;
39524;SDS011;25203;50.754;6.978;2024-03-08T04:29:48;34.95;;;22.23;;
39524;SDS011;25203;50.754;6.978;2024-03-08T04:31:49;38.05;;;24.60;;
39524;SDS011;25203;50.754;6.978;2024-03-08T04:33:49;36.33;;;22.88;;
39524;SDS011;25203;50.754;6.978;2024-03-08T04:35:50;41.35;;;25.58;;
39524;SDS011;25203;50.754;6.978;2024-03-08T04:37:51;36.05;;;23.23;;
39524;SDS011;25203;50.754;6.978;2024-03-08T04:39:51;38.08;;;23.35;;
39524;SDS011;25203;50.754;6.978;2024-03-08T04:41:52;36.95;;;23.80;;
39524;SDS011;25203;50.754;6.978;2024-03-08T04:43:54;37.58;;;22.70;;
39524;SDS011;25203;50.754;6.978;2024-03-08T04:45:57;39.95;;;23.88;;
39524;SDS011;25203;50.754;6.978;2024-03-08T04:47:58;36.05;;;22.13;;
39524;SDS011;25203;50.754;6.978;2024-03-08T04:49:59;39.25;;;22.80;;
39524;SDS011;25203;50.754;6.978;2024-03-08T04:52:03;34.03;;;21.48;;
39524;SDS011;25203;50.754;6.978;2024-03-08T04:54:04;35.80;;;21.77;;
39524;SDS011;25203;50.754;6.978;2024-03-08T04:56:07;36.10;;;22.10;;
39524;SDS011;25203;50.754;6.978;2024-03-08T04:58:08;37.58;;;24.05;;
39524;SDS011;25203;50.754;6.978;2024-03-08T05:00:08;39.88;;;23.83;;
39524;SDS011;25203;50.754;6.978;2024-03-08T05:02:11;33.47;;;21.98;;
39524;SDS011;25203;50.754;6.978;2024-03-08T05:04:11;36.88;;;22.23;;
39524;SDS011;25203;50.754;6.978;2024-03-08T05:06:12;36.70;;;21.50;;
39524;SDS011;25203;50.754;6.978;2024-03-08T05:08:12;35.80;;;21.45;;
39524;SDS011;25203;50.754;6.978;2024-03-08T05:10:13;35.95;;;21.40;;
39524;SDS011;25203;50.754;6.978;2024-03-08T05:12:18;32.97;;;21.77;;
39524;SDS011;25203;50.754;6.978;2024-03-08T05:14:18;35.25;;;22.85;;
39524;SDS011;25203;50.754;6.978;2024-03-08T05:16:20;37.63;;;24.02;;
39524;SDS011;25203;50.754;6.978;2024-03-08T05:18:22;38.20;;;22.38;;
39524;SDS011;25203;50.754;6.978;2024-03-08T05:20:23;37.00;;;24.05;;
39524;SDS011;25203;50.754;6.978;2024-03-08T05:22:23;41.38;;;24.52;;
39524;SDS011;25203;50.754;6.978;2024-03-08T05:24:24;45.90;;;23.85;;
39524;SDS011;25203;50.754;6.978;2024-03-08T05:26:25;40.97;;;23.80;;
39524;SDS011;25203;50.754;6.978;2024-03-08T05:28:25;41.05;;;24.00;;
39524;SDS011;25203;50.754;6.978;2024-03-08T05:30:26;40.58;;;23.85;;
39524;SDS011;25203;50.754;6.978;2024-03-08T05:32:27;35.00;;;22.95;;
39524;SDS011;25203;50.754;6.978;2024-03-08T05:34:27;39.88;;;24.95;;
39524;SDS011;25203;50.754;6.978;2024-03-08T05:36:28;36.55;;;22.67;;
39524;SDS011;25203;50.754;6.978;2024-03-08T05:38:30;38.67;;;23.45;;
39524;SDS011;25203;50.754;6.978;2024-03-08T05:40:30;41.15;;;22.27;;
39524;SDS011;25203;50.754;6.978;2024-03-08T05:42:34;40.35;;;24.00;;
39524;SDS011;25203;50.754;6.978;2024-03-08T05:44:36;41.70;;;24.23;;
39524;SDS011;25203;50.754;6.978;2024-03-08T05:46:37;34.05;;;22.08;;
39524;SDS011;25203;50.754;6.978;2024-03-08T05:48:37;36.88;;;23.13;;
39524;SDS011;25203;50.754;6.978;2024-03-08T05:50:38;34.85;;;22.65;;
39524;SDS011;25203;50.754;6.978;2024-03-08T05:52:39;34.08;;;22.98;;
39524;SDS011;25203;50.754;6.978;2024-03-08T05:54:39;39.72;;;22.63;;
39524;SDS011;25203;50.754;6.978;2024-03-08T05:56:41;35.95;;;22.75;;
39524;SDS011;25203;50.754;6.978;2024-03-08T05:58:44;42.67;;;24.75;;
39524;SDS011;25203;50.754;6.978;2024-03-08T06:00:45;40.90;;;23.55;;
39524;SDS011;25203;50.754;6.978;2024-03-08T06:02:46;41.45;;;24.13;;
39524;SDS011;25203;50.754;6.978;2024-03-08T06:04:46;35.67;;;23.40;;
39524;SDS011;25203;50.754;6.978;2024-03-08T06:06:47;33.90;;;21.55;;
39524;SDS011;25203;50.754;6.978;2024-03-08T06:08:48;39.83;;;23.55;;
39524;SDS011;25203;50.754;6.978;2024-03-08T06:10:49;40.53;;;23.00;;
39524;SDS011;25203;50.754;6.978;2024-03-08T06:12:52;37.75;;;21.88;;
39524;SDS011;25203;50.754;6.978;2024-03-08T06:14:53;38.50;;;22.90;;
39524;SDS011;25203;50.754;6.978;2024-03-08T06:16:54;44.25;;;24.60;;
39524;SDS011;25203;50.754;6.978;2024-03-08T06:19:04;44.58;;;23.48;;
39524;SDS011;25203;50.754;6.978;2024-03-08T06:21:05;44.10;;;26.17;;
39524;SDS011;25203;50.754;6.978;2024-03-08T06:23:06;41.88;;;26.13;;
39524;SDS011;25203;50.754;6.978;2024-03-08T06:25:08;41.10;;;24.90;;
39524;SDS011;25203;50.754;6.978;2024-03-08T06:27:10;41.30;;;24.33;;
39524;SDS011;25203;50.754;6.978;2024-03-08T06:29:10;42.15;;;25.35;;
39524;SDS011;25203;50.754;6.978;2024-03-08T06:31:11;39.78;;;25.98;;
39524;SDS011;25203;50.754;6.978;2024-03-08T06:33:11;38.80;;;24.13;;
39524;SDS011;25203;50.754;6.978;2024-03-08T06:35:12;38.95;;;23.42;;
39524;SDS011;25203;50.754;6.978;2024-03-08T06:37:15;38.75;;;24.08;;
39524;SDS011;25203;50.754;6.978;2024-03-08T06:39:16;41.65;;;24.20;;
39524;SDS011;25203;50.754;6.978;2024-03-08T06:41:17;43.22;;;24.55;;
39524;SDS011;25203;50.754;6.978;2024-03-08T06:43:18;42.80;;;25.13;;
39524;SDS011;25203;50.754;6.978;2024-03-08T06:45:19;35.25;;;22.58;;
39524;SDS011;25203;50.754;6.978;2024-03-08T06:47:21;37.60;;;23.30;;
39524;SDS011;25203;50.754;6.978;2024-03-08T06:49:25;36.58;;;22.98;;
39524;SDS011;25203;50.754;6.978;2024-03-08T06:51:26;35.88;;;22.08;;
39524;SDS011;25203;50.754;6.978;2024-03-08T06:53:27;35.80;;;22.40;;
39524;SDS011;25203;50.754;6.978;2024-03-08T06:55:28;37.80;;;24.27;;
39524;SDS011;25203;50.754;6.978;2024-03-08T06:57:28;43.72;;;24.80;;
39524;SDS011;25203;50.754;6.978;2024-03-08T06:59:29;30.83;;;21.42;;
39524;SDS011;25203;50.754;6.978;2024-03-08T07:01:30;36.28;;;23.10;;
39524;SDS011;25203;50.754;6.978;2024-03-08T07:03:32;38.83;;;23.70;;
39524;SDS011;25203;50.754;6.978;2024-03-08T07:05:32;35.78;;;24.25;;
39524;SDS011;25203;50.754;6.978;2024-03-08T07:07:33;34.88;;;21.85;;
39524;SDS011;25203;50.754;6.978;2024-03-08T07:09:34;38.70;;;23.05;;
39524;SDS011;25203;50.754;6.978;2024-03-08T07:11:35;37.45;;;24.17;;
39524;SDS011;25203;50.754;6.978;2024-03-08T07:13:36;38.55;;;24.45;;
39524;SDS011;25203;50.754;6.978;2024-03-08T07:15:38;38.33;;;24.52;;
39524;SDS011;25203;50.754;6.978;2024-03-08T07:17:39;37.38;;;22.65;;
39524;SDS011;25203;50.754;6.978;2024-03-08T07:19:40;33.90;;;22.00;;
39524;SDS011;25203;50.754;6.978;2024-03-08T07:21:41;36.80;;;22.38;;
39524;SDS011;25203;50.754;6.978;2024-03-08T07:23:42;36.75;;;23.05;;
39524;SDS011;25203;50.754;6.978;2024-03-08T07:25:46;33.47;;;20.02;;
39524;SDS011;25203;50.754;6.978;2024-03-08T07:27:49;38.97;;;22.40;;
39524;SDS011;25203;50.754;6.978;2024-03-08T07:29:53;37.22;;;21.88;;
39524;SDS011;25203;50.754;6.978;2024-03-08T07:31:55;34.30;;;21.25;;
39524;SDS011;25203;50.754;6.978;2024-03-08T07:34:07;31.80;;;21.48;;
39524;SDS011;25203;50.754;6.978;2024-03-08T07:36:08;31.77;;;21.33;;
39524;SDS011;25203;50.754;6.978;2024-03-08T07:38:09;35.35;;;23.42;;
39524;SDS011;25203;50.754;6.978;2024-03-08T07:40:10;30.75;;;20.42;;
39524;SDS011;25203;50.754;6.978;2024-03-08T07:42:13;29.85;;;19.88;;
39524;SDS011;25203;50.754;6.978;2024-03-08T07:44:14;28.15;;;19.48;;
39524;SDS011;25203;50.754;6.978;2024-03-08T07:46:15;25.27;;;17.75;;
39524;SDS011;25203;50.754;6.978;2024-03-08T07:48:18;25.95;;;18.08;;
39524;SDS011;25203;50.754;6.978;2024-03-08T07:50:19;23.73;;;16.33;;
39524;SDS011;25203;50.754;6.978;2024-03-08T07:52:22;29.08;;;17.80;;
39524;SDS011;25203;50.754;6.978;2024-03-08T07:54:23;21.88;;;16.33;;
39524;SDS011;25203;50.754;6.978;2024-03-08T07:56:25;21.65;;;16.73;;
39524;SDS011;25203;50.754;6.978;2024-03-08T07:58:26;19.55;;;15.98;;
39524;SDS011;25203;50.754;6.978;2024-03-08T08:00:26;20.63;;;16.02;;
39524;SDS011;25203;50.754;6.978;2024-03-08T08:02:27;19.88;;;15.30;;
39524;SDS011;25203;50.754;6.978;2024-03-08T08:04:28;20.33;;;16.42;;
39524;SDS011;25203;50.754;6.978;2024-03-08T08:06:28;17.90;;;14.98;;
39524;SDS011;25203;50.754;6.978;2024-03-08T08:08:33;21.35;;;15.63;;
39524;SDS011;25203;50.754;6.978;2024-03-08T08:10:33;21.92;;;16.73;;
39524;SDS011;25203;50.754;6.978;2024-03-08T08:12:34;19.10;;;15.88;;
39524;SDS011;25203;50.754;6.978;2024-03-08T08:14:34;19.05;;;16.45;;
39524;SDS011;25203;50.754;6.978;2024-03-08T08:16:36;19.50;;;15.75;;
39524;SDS011;25203;50.754;6.978;2024-03-08T08:18:37;20.92;;;17.08;;
39524;SDS011;25203;50.754;6.978;2024-03-08T08:20:38;20.30;;;15.55;;
39524;SDS011;25203;50.754;6.978;2024-03-08T08:22:39;20.10;;;16.90;;
39524;SDS011;25203;50.754;6.978;2024-03-08T08:24:40;19.95;;;16.15;;
39524;SDS011;25203;50.754;6.978;2024-03-08T08:26:41;20.50;;;15.52;;
39524;SDS011;25203;50.754;6.978;2024-03-08T08:28:41;19.20;;;15.75;;
39524;SDS011;25203;50.754;6.978;2024-03-08T08:30:43;17.70;;;15.18;;
39524;SDS011;25203;50.754;6.978;2024-03-08T08:32:44;17.52;;;14.93;;
39524;SDS011;25203;50.754;6.978;2024-03-08T08:34:47;16.77;;;14.77;;
39524;SDS011;25203;50.754;6.978;2024-03-08T08:36:47;16.98;;;15.18;;
39524;SDS011;25203;50.754;6.978;2024-03-08T08:38:48;19.83;;;16.52;;
39524;SDS011;25203;50.754;6.978;2024-03-08T08:40:49;17.98;;;15.95;;
39524;SDS011;25203;50.754;6.978;2024-03-08T08:42:50;19.02;;;15.82;;
39524;SDS011;25203;50.754;6.978;2024-03-08T08:44:50;19.55;;;14.80;;
39524;SDS011;25203;50.754;6.978;2024-03-08T08:46:52;20.15;;;15.73;;
39524;SDS011;25203;50.754;6.978;2024-03-08T08:48:53;19.15;;;15.90;;
39524;SDS011;25203;50.754;6.978;2024-03-08T08:50:54;20.30;;;15.68;;
39524;SDS011;25203;50.754;6.978;2024-03-08T08:52:55;18.52;;;15.23;;
39524;SDS011;25203;50.754;6.978;2024-03-08T08:54:56;17.83;;;14.70;;
39524;SDS011;25203;50.754;6.978;2024-03-08T08:56:56;20.60;;;15.10;;
39524;SDS011;25203;50.754;6.978;2024-03-08T08:58:57;18.92;;;15.32;;
39524;SDS011;25203;50.754;6.978;2024-03-08T09:00:57;20.50;;;15.75;;
39524;SDS011;25203;50.754;6.978;2024-03-08T09:02:59;20.92;;;15.93;;
39524;SDS011;25203;50.754;6.978;2024-03-08T09:05:00;18.75;;;15.40;;
39524;SDS011;25203;50.754;6.978;2024-03-08T09:07:01;21.05;;;16.33;;
39524;SDS011;25203;50.754;6.978;2024-03-08T09:09:02;23.30;;;15.82;;
39524;SDS011;25203;50.754;6.978;2024-03-08T09:11:04;22.92;;;15.63;;
39524;SDS011;25203;50.754;6.978;2024-03-08T09:13:05;20.33;;;15.30;;
39524;SDS011;25203;50.754;6.978;2024-03-08T09:15:06;28.58;;;15.82;;
39524;SDS011;25203;50.754;6.978;2024-03-08T09:17:11;22.52;;;15.35;;
39524;SDS011;25203;50.754;6.978;2024-03-08T09:19:11;24.77;;;16.02;;
39524;SDS011;25203;50.754;6.978;2024-03-08T09:21:12;20.50;;;15.63;;
39524;SDS011;25203;50.754;6.978;2024-03-08T09:23:13;17.95;;;14.35;;
39524;SDS011;25203;50.754;6.978;2024-03-08T09:25:14;18.65;;;14.10;;
39524;SDS011;25203;50.754;6.978;2024-03-08T09:27:16;22.23;;;14.88;;
39524;SDS011;25203;50.754;6.978;2024-03-08T09:29:18;20.67;;;14.30;;
39524;SDS011;25203;50.754;6.978;2024-03-08T09:31:18;19.65;;;14.20;;
39524;SDS011;25203;50.754;6.978;2024-03-08T09:33:19;19.20;;;14.93;;
39524;SDS011;25203;50.754;6.978;2024-03-08T09:35:20;22.90;;;13.25;;
39524;SDS011;25203;50.754;6.978;2024-03-08T09:37:21;18.27;;;14.48;;
39524;SDS011;25203;50.754;6.978;2024-03-08T09:39:22;19.95;;;14.60;;
39524;SDS011;25203;50.754;6.978;2024-03-08T09:41:23;17.08;;;14.25;;
39524;SDS011;25203;50.754;6.978;2024-03-08T09:43:24;18.25;;;13.98;;
39524;SDS011;25203;50.754;6.978;2024-03-08T09:45:24;16.52;;;13.73;;
39524;SDS011;25203;50.754;6.978;2024-03-08T09:47:26;19.10;;;14.27;;
39524;SDS011;25203;50.754;6.978;2024-03-08T09:49:33;18.80;;;13.70;;
39524;SDS011;25203;50.754;6.978;2024-03-08T09:51:34;17.75;;;14.20;;
39524;SDS011;25203;50.754;6.978;2024-03-08T09:53:36;18.10;;;14.02;;
39524;SDS011;25203;50.754;6.978;2024-03-08T09:55:37;16.83;;;13.35;;
39524;SDS011;25203;50.754;6.978;2024-03-08T09:57:42;16.90;;;13.40;;
39524;SDS011;25203;50.754;6.978;2024-03-08T10:00:02;16.90;;;12.63;;
39524;SDS011;25203;50.754;6.978;2024-03-08T10:02:18;18.85;;;13.80;;
39524;SDS011;25203;50.754;6.978;2024-03-08T10:04:19;19.42;;;13.27;;
39524;SDS011;25203;50.754;6.978;2024-03-08T10:06:22;17.55;;;13.07;;
39524;SDS011;25203;50.754;6.978;2024-03-08T10:08:23;18.92;;;12.10;;
39524;SDS011;25203;50.754;6.978;2024-03-08T10:10:24;18.35;;;13.43;;
39524;SDS011;25203;50.754;6.978;2024-03-08T10:12:24;19.48;;;12.93;;
39524;SDS011;25203;50.754;6.978;2024-03-08T10:14:25;17.17;;;13.60;;
39524;SDS011;25203;50.754;6.978;2024-03-08T10:16:29;18.38;;;12.90;;
39524;SDS011;25203;50.754;6.978;2024-03-08T10:18:30;16.83;;;12.18;;
39524;SDS011;25203;50.754;6.978;2024-03-08T10:20:32;21.23;;;12.25;;
39524;SDS011;25203;50.754;6.978;2024-03-08T10:22:33;16.63;;;12.75;;
39524;SDS011;25203;50.754;6.978;2024-03-08T10:24:35;17.60;;;11.93;;
39524;SDS011;25203;50.754;6.978;2024-03-08T10:26:36;17.55;;;12.18;;
39524;SDS011;25203;50.754;6.978;2024-03-08T10:28:37;14.68;;;11.70;;
39524;SDS011;25203;50.754;6.978;2024-03-08T10:30:38;14.95;;;12.65;;
39524;SDS011;25203;50.754;6.978;2024-03-08T10:32:38;15.38;;;12.13;;
39524;SDS011;25203;50.754;6.978;2024-03-08T10:34:41;17.98;;;11.85;;
39524;SDS011;25203;50.754;6.978;2024-03-08T10:36:42;15.57;;;11.60;;
39524;SDS011;25203;50.754;6.978;2024-03-08T10:38:43;13.82;;;10.70;;
39524;SDS011;25203;50.754;6.978;2024-03-08T10:40:46;12.45;;;10.90;;
39524;SDS011;25203;50.754;6.978;2024-03-08T10:42:58;14.38;;;10.85;;
39524;SDS011;25203;50.754;6.978;2024-03-08T10:45:05;13.15;;;10.48;;
39524;SDS011;25203;50.754;6.978;2024-03-08T10:47:18;13.35;;;10.80;;
39524;SDS011;25203;50.754;6.978;2024-03-08T10:49:27;15.10;;;10.63;;
39524;SDS011;25203;50.754;6.978;2024-03-08T10:51:39;12.75;;;10.43;;
39524;SDS011;25203;50.754;6.978;2024-03-08T10:53:42;12.65;;;11.20;;
39524;SDS011;25203;50.754;6.978;2024-03-08T10:55:44;11.85;;;9.93;;
39524;SDS011;25203;50.754;6.978;2024-03-08T10:57:46;13.32;;;10.10;;
39524;SDS011;25203;50.754;6.978;2024-03-08T10:59:47;12.63;;;9.98;;
39524;SDS011;25203;50.754;6.978;2024-03-08T11:01:49;13.02;;;10.52;;
39524;SDS011;25203;50.754;6.978;2024-03-08T11:03:51;11.20;;;9.80;;
39524;SDS011;25203;50.754;6.978;2024-03-08T11:05:53;14.85;;;11.20;;
39524;SDS011;25203;50.754;6.978;2024-03-08T11:07:53;13.52;;;11.50;;
39524;SDS011;25203;50.754;6.978;2024-03-08T11:09:54;14.77;;;11.20;;
39524;SDS011;25203;50.754;6.978;2024-03-08T11:14:44;13.05;;;10.40;;
39524;SDS011;25203;50.754;6.978;2024-03-08T11:16:49;12.35;;;10.43;;
39524;SDS011;25203;50.754;6.978;2024-03-08T11:18:49;12.13;;;9.68;;
39524;SDS011;25203;50.754;6.978;2024-03-08T11:20:55;13.43;;;10.77;;
39524;SDS011;25203;50.754;6.978;2024-03-08T11:23:00;14.60;;;10.60;;
39524;SDS011;25203;50.754;6.978;2024-03-08T11:25:04;13.55;;;10.35;;
39524;SDS011;25203;50.754;6.978;2024-03-08T11:27:09;13.55;;;10.43;;
39524;SDS011;25203;50.754;6.978;2024-03-08T11:31:30;16.00;;;11.07;;
39524;SDS011;25203;50.754;6.978;2024-03-08T11:33:34;15.68;;;10.77;;
39524;SDS011;25203;50.754;6.978;2024-03-08T11:35:36;15.35;;;11.25;;
39524;SDS011;25203;50.754;6.978;2024-03-08T11:37:37;12.82;;;10.38;;
39524;SDS011;25203;50.754;6.978;2024-03-08T11:39:38;14.02;;;11.40;;
39524;SDS011;25203;50.754;6.978;2024-03-08T11:41:40;14.27;;;11.25;;
39524;SDS011;25203;50.754;6.978;2024-03-08T11:43:42;13.57;;;10.70;;
39524;SDS011;25203;50.754;6.978;2024-03-08T11:45:42;13.10;;;11.02;;
39524;SDS011;25203;50.754;6.978;2024-03-08T11:47:43;13.68;;;11.18;;
39524;SDS011;25203;50.754;6.978;2024-03-08T11:49:46;17.27;;;11.68;;
39524;SDS011;25203;50.754;6.978;2024-03-08T11:51:52;14.65;;;10.82;;
39524;SDS011;25203;50.754;6.978;2024-03-08T11:53:53;14.45;;;11.52;;
39524;SDS011;25203;50.754;6.978;2024-03-08T11:55:54;13.95;;;10.32;;